Tiempo atmosférico en la estación meteorológica de Fregenal De La Sierra, Badajoz (586 m.)



Fecha
DESCASC
Temp. máxima en grados centígrados (hora)
DESCASC
Temp. mínima en grados centígrados (hora)
DESCASC
Temp. media en grados centígrados
DESCASC
Racha de viento máxima en m/sg (hora)
DESCASC
Velocidad máxima media en intervalos de 10 minutos(hora)
DESCASC
Precipitaciones diarias en mm
DESCASC
Precipitaciones de 00:00 a 06:00 en mm
DESCASC
Precipitaciones de 06:00 a 12:00 en mm
DESCASC
Precipitaciones de 12:00 a 18:00 en mm
DESCASC
Precipitaciones de 18:00 a 24:00 en mm
DESCASC
05-04-2020 17.4 (13:40) 8.9 (04:00) 13.1 11.39 (13:30) 6.39 (11:50) 4.4 0 0 0 4.4
04-04-2020 14.5 (15:00) 7.9 (04:00) 11.2 10.56 (15:00) 5.83 (15:40) 0.6 0 0 0.4 0.2
03-04-2020 18.5 (15:00) 2.9 (07:10) 10.7 5.83 (15:10) 2.5 (15:10) 0 0 0 0 0
02-04-2020 14.3 (18:50) 3.7 (00:00) 9 8.61 (13:30) 4.44 (13:20) 0.4 0 0.4 0 0
01-04-2020 12.5 (14:30) -0.3 (00:00) 6.1 8.61 (13:10) 3.89 (19:00) 10.4 0 0 3.4 7
31-03-2020 13.1 (17:40) 5.4 (00:00) 9.3 8.89 (18:50) 3.89 (01:30) 12.4 6.4 1 5 0
30-03-2020 13.8 (14:10) 4.7 (00:00) 9.3 6.94 (15:40) 4.17 (12:50) 6.8 0 0 5.8 1
29-03-2020 17.2 (15:00) 4.2 (00:00) 10.7 4.17 (13:30) 2.22 (11:50) 0 0 0 0 0
28-03-2020 16.5 (14:50) 1.1 (00:00) 8.8 6.11 (14:00) 3.61 (13:20) 0 0 0 0 0
27-03-2020 13.2 (16:50) 4.7 (00:00) 8.9 6.67 (18:30) 3.61 (18:30) 0 0 0 0 0
26-03-2020 16.9 (16:20) 5.5 (00:00) 11.2 10.28 (16:40) 5 (18:00) 0.2 0 0 0.2 0
25-03-2020 17.6 (15:10) 5.4 (00:00) 11.5 6.39 (23:00) 2.78 (16:30) 0.2 0 0 0.2 0
24-03-2020 15.9 (17:10) 6.1 (00:00) 11 10.56 (13:00) 5.28 (13:50) 0.2 0 0 0.2 0
23-03-2020 15.1 (15:10) 5.2 (00:00) 10.2 11.11 (16:40) 5.56 (16:40) 2 0 0 0.6 1.4
22-03-2020 14.1 (16:20) 6 (06:00) 10.1 8.61 (16:40) 4.44 (16:40) 0.2 0.2 0 0 0
21-03-2020 11.7 (13:30) 5.7 (00:00) 8.7 9.72 (13:40) 5.56 (13:40) 11.8 8.6 0 1.8 1.4
20-03-2020 13.5 (13:40) 8.8 (00:00) 11.2 9.17 (15:40) 4.44 (15:50) 23.2 0 0 2.4 20.8
19-03-2020 18.3 (16:10) 6.4 (00:00) 12.3 5.28 (13:30) 3.06 (12:50) 0 0 0 0 0
18-03-2020 19.7 (16:40) 8.8 (00:00) 14.3 9.17 (16:10) 5 (16:00) 0 0 0 0 0
17-03-2020 14.8 (16:50) 3.3 (00:00) 9.1 11.94 (13:40) 8.06 (12:20) 0.6 0.6 0 0 0
16-03-2020 10.3 (15:10) 2 (00:00) 6.2 13.89 (15:30) 7.78 (15:40) 2.4 0 0 0.4 2
15-03-2020 20.5 (15:20) 6.9 (00:00) 13.7 11.39 (18:10) 5.83 (21:40) 0 0 0 0 0
14-03-2020 22.4 (15:00) 6.2 (00:00) 14.3 6.11 (18:20) 3.33 (18:20) 0 0 0 0 0
13-03-2020 20.7 (15:20) 5.9 (07:50) 13.3 6.11 (13:50) 3.61 (17:20) 0 0 0 0 0
12-03-2020 22.8 (14:00) 9.5 (00:00) 16.1 8.61 (11:50) 5.28 (11:40) 0 0 0 0 0
11-03-2020 25.9 (14:00) 7.5 (00:00) 16.7 6.67 (12:40) 3.89 (12:40) 0 0 0 0 0
10-03-2020 25.1 (15:50) 4.5 (00:00) 14.8 5.28 (10:50) 3.06 (10:50) 0 0 0 0 0
09-03-2020 18.8 (15:10) 2.7 (00:00) 10.7 8.06 (12:30) 5.28 (11:50) 0 0 0 0 0
08-03-2020 18.1 (14:20) -0.1 (00:00) 9 6.11 (16:10) 3.33 (17:10) 0 0 0 0 0

Gráficas

Temp. máximas Temp. mínimas Temp. medias Precipitaciones Rachas de viento máximas Velocidades máximas media en intervalos de 10 minutos

Datos horarios

Fecha y hora oficial Temperatura (ºC) Velocidad del viento (km/h) Dirección del viento Racha (km/h) Dirección de racha Precipitación (mm) Presión (hPa) Tendencia (hPa) Humedad (%)
2020-04-06 23:00:00 12.1 6 Sur 11 Sudoeste 0 -- -- 95
2020-04-06 22:00:00 12.9 6 Sur 15 Sudoeste 0 -- -- 92
2020-04-06 21:00:00 13.8 6 Sur 15 Sur 0 -- -- 89
2020-04-06 20:00:00 15 8 Sur 18 Sur 0 -- -- 88
2020-04-06 19:00:00 14.9 6 Sur 18 Sur 0 -- -- 91
2020-04-06 18:00:00 15.5 10 Sur 22 Sur 0 -- -- 86
2020-04-06 17:00:00 15.5 10 Sur 23 Sur 0 -- -- 85
2020-04-06 16:00:00 15.7 9 Sur 22 Sudoeste 0 -- -- 85
2020-04-06 15:00:00 16.1 9 Sur 22 Sudoeste 0 -- -- 81
2020-04-06 14:00:00 16.5 12 Sudoeste 22 Sur 0 -- -- 78
2020-04-06 13:00:00 15.9 8 Sudoeste 28 Sudoeste 0 -- -- 80
2020-04-06 12:00:00 14.9 10 Sur 24 Sur 0 -- -- 83
2020-04-06 11:00:00 14 13 Sur 27 Sur 0 -- -- 86
2020-04-06 10:00:00 13.9 13 Sur 24 Sur 0 -- -- 89
2020-04-06 09:00:00 11.6 4 Sur 9 Sur 0 -- -- 98
2020-04-06 08:00:00 11.7 5 Sur 11 Sur 0 -- -- 98
2020-04-06 07:00:00 11.9 5 Sur 13 Sur 0 -- -- 98
2020-04-06 06:00:00 12.1 5 Sur 14 Sudoeste 0 -- -- 98
2020-04-06 05:00:00 12.4 5 Sur 17 Sudoeste 0 -- -- 98
2020-04-06 04:00:00 12.5 5 Sur 17 Sur 0 -- -- 98
2020-04-06 03:00:00 12.7 5 Sudoeste 17 Sudoeste 0 -- -- 98
2020-04-06 02:00:00 12.6 10 Sudoeste 24 Sudoeste 1.8 -- -- 98
2020-04-06 01:00:00 12.7 10 Sur 22 Sur 3.2 -- -- 98
2020-04-06 00:00:00 12.7 12 Sur 26 Sur 2 -- -- 97
2020-04-05 23:00:00 12.9 12 Sur 24 Sudoeste 2 -- -- 97
2020-04-05 22:00:00 13.1 13 Sur 23 Sur 0.4 -- -- 94
2020-04-05 21:00:00 13.4 11 Sur 33 Sudoeste 0 -- -- 92
2020-04-05 20:00:00 14.2 16 Sur 32 Sur 0 -- -- 86
2020-04-05 19:00:00 14.7 17 Sur 36 Sur 0 -- -- 84
2020-04-05 18:00:00 15.4 14 Sur 39 Sudoeste 0 -- -- 81
2020-04-05 17:00:00 15.4 18 Sur 35 Sur 0 -- -- 79
2020-04-05 16:00:00 15.9 15 Sur 36 Sudoeste 0 -- -- 76
2020-04-05 15:00:00 16.1 17 Sur 35 Sudoeste 0 -- -- 72
2020-04-05 14:00:00 16.3 18 Sur 41 Sur 0 -- -- 70
2020-04-05 13:00:00 16 22 Sur 41 Sudoeste 0 -- -- 72
2020-04-05 12:00:00 15.6 19 Sur 39 Sur 0 -- -- 72
2020-04-05 11:00:00 13.1 19 Sur 33 Sur 0 -- -- 76
2020-04-05 10:00:00 11.3 14 Sur 26 Sur 0 -- -- 82
2020-04-05 09:00:00 11.1 14 Sur 30 Sur 0 -- -- 82
2020-04-05 08:00:00 9.7 12 Sur 32 Sur 0 -- -- 86
2020-04-05 07:00:00 10.1 16 Sur 32 Sur 0 -- -- 84
2020-04-05 06:00:00 10 15 Sur 27 Sur 0 -- -- 83
2020-04-05 05:00:00 9.3 10 Sur 18 Sur 0 -- -- 88
2020-04-05 04:00:00 8.9 8 Sur 18 Sur 0 -- -- 90
2020-04-05 03:00:00 9.8 10 Sur 27 Sur 0 -- -- 88
2020-04-05 02:00:00 10.2 12 Sur 28 Sur 0 -- -- 84
2020-04-05 01:00:00 10 12 Sur 21 Sudoeste 0 -- -- 87
2020-04-05 00:00:00 10.1 8 Sur 17 Sur 0 -- -- 86
2020-04-04 23:00:00 10.8 5 Sur 16 Sur 0 -- -- 84
2020-04-04 22:00:00 11.7 6 Sur 15 Sur 0 -- -- 79
2020-04-04 21:00:00 12.6 8 Sur 15 Sur 0 -- -- 76
2020-04-04 20:00:00 13 10 Sur 24 Sur 0 -- -- 74
2020-04-04 19:00:00 13 8 Sur 12 Sur 0.2 -- -- 78
2020-04-04 18:00:00 12.6 8 Sur 24 Sudeste 0.4 -- -- 77
2020-04-04 17:00:00 13.1 14 Sur 28 Sur 0 -- -- 71
2020-04-04 16:00:00 13.5 17 Sur 36 Sur 0 -- -- 68
2020-04-04 15:00:00 14.5 18 Sur 38 Sudeste 0 -- -- 59
2020-04-04 14:00:00 13.5 18 Sur 32 Sur 0 -- -- 61
2020-04-04 13:00:00 13.8 15 Sur 33 Sur 0 -- -- 58
2020-04-04 12:00:00 12.6 19 Sur 35 Sur 0 -- -- 63
2020-04-04 11:00:00 11.3 10 Sudeste 35 Sur 0 -- -- 68
2020-04-04 10:00:00 10.2 17 Sudeste 33 Sudeste 0 -- -- 68
2020-04-04 09:00:00 9.6 14 Sudeste 28 Sudeste 0 -- -- 70
2020-04-04 08:00:00 8.3 14 Sudeste 24 Sudeste 0 -- -- 74
2020-04-04 07:00:00 8.1 10 Sudeste 26 Sur 0 -- -- 76
2020-04-04 06:00:00 8.7 14 Sudeste 27 Sudeste 0 -- -- 73
2020-04-04 05:00:00 9.2 11 Sur 18 Sur 0 -- -- 73
2020-04-04 04:00:00 7.9 5 Sudeste 11 Sudeste 0 -- -- 86
2020-04-04 03:00:00 8.6 4 Sur 12 Sur 0 -- -- 88
2020-04-04 02:00:00 8.8 4 Sur 8 Sur 0 -- -- 86
2020-04-04 01:00:00 9.7 5 Sur 14 Sur 0 -- -- 80
2020-04-04 00:00:00 8.6 5 Sur 8 Sur 0 -- -- 84
2020-04-03 23:00:00 9.9 2 Sur 12 Sudeste 0 -- -- 80
2020-04-03 22:00:00 11.3 3 Sudoeste 8 Sur 0 -- -- 76
2020-04-03 21:00:00 14.4 3 Sur 14 Este 0 -- -- 66
2020-04-03 20:00:00 16.3 5 Sudeste 14 Sudeste 0 -- -- 63
2020-04-03 19:00:00 17 6 Sudeste 11 Sudeste 0 -- -- 58
2020-04-03 18:00:00 17.5 4 Sudeste 10 Este 0 -- -- 52
2020-04-03 17:00:00 18 6 Sur 15 Sur 0 -- -- 49
2020-04-03 16:00:00 17.5 4 Sur 21 Sur 0 -- -- 47
2020-04-03 15:00:00 18.5 4 Noroeste 14 Sudeste 0 -- -- 51
2020-04-03 14:00:00 18.2 6 Sur 18 Sur 0 -- -- 51
2020-04-03 13:00:00 17.1 6 Sudoeste 14 Sudoeste 0 -- -- 50
2020-04-03 12:00:00 16.1 6 Sudeste 10 Sudeste 0 -- -- 62
2020-04-03 11:00:00 12.3 4 Sudeste 6 Sudeste 0 -- -- 78
2020-04-03 10:00:00 8.8 0 Calma -- -- 0 -- -- 100
2020-04-03 09:00:00 4.5 0 Calma -- -- 0 -- -- 100
2020-04-03 08:00:00 3.1 0 Calma -- -- 0 -- -- 98
2020-04-03 07:00:00 3.1 0 Calma -- -- 0 -- -- 98
2020-04-03 06:00:00 3.7 0 Calma 2 Sur 0 -- -- 98
2020-04-03 05:00:00 4 0 Calma 4 Norte 0 -- -- 96
2020-04-03 04:00:00 4.5 0 Calma 4 Oeste 0 -- -- 95
2020-04-03 03:00:00 5.2 0 Calma 5 Sudeste 0 -- -- 92
2020-04-03 02:00:00 7.3 2 Oeste 9 Noroeste 0 -- -- 87
2020-04-03 01:00:00 9 5 Oeste 15 Oeste 0 -- -- 83
2020-04-03 00:00:00 9.1 5 Noroeste 12 Oeste 0 -- -- 80
2020-04-02 23:00:00 9.4 8 Noroeste 13 Noroeste 0 -- -- 78
2020-04-02 22:00:00 8.2 8 Noroeste 11 Oeste 0 -- -- 81
2020-04-02 21:00:00 10.5 4 Noroeste 10 Noroeste 0 -- -- 72
2020-04-02 20:00:00 13 8 Norte 18 Noroeste 0 -- -- 62
2020-04-02 19:00:00 14.1 11 Norte 24 Norte 0 -- -- 60
2020-04-02 18:00:00 13.8 12 Norte 26 Nordeste 0 -- -- 58
2020-04-02 17:00:00 13 13 Nordeste 25 Nordeste 0 -- -- 61
2020-04-02 16:00:00 12.4 13 Norte 23 Nordeste 0 -- -- 68
2020-04-02 15:00:00 11.4 12 Nordeste 26 Nordeste 0 -- -- 72
2020-04-02 14:00:00 10 12 Norte 31 Norte 0 -- -- 76
2020-04-02 13:00:00 9.5 13 Nordeste 26 Norte 0 -- -- 78
2020-04-02 12:00:00 8.7 9 Norte 25 Norte 0 -- -- 83
2020-04-02 11:00:00 7.1 12 Norte 22 Norte 0 -- -- 93
2020-04-02 10:00:00 5.9 8 Nordeste 20 Nordeste 0 -- -- 99
2020-04-02 09:00:00 4.7 6 Norte 12 Nordeste 0 -- -- 99
2020-04-02 08:00:00 4.2 5 Norte 7 Noroeste 0.4 -- -- 99
2020-04-02 07:00:00 4.1 3 Norte 7 Norte 0 -- -- 98
2020-04-02 06:00:00 3.9 2 Noroeste 8 Noroeste 0 -- -- 97
2020-04-02 05:00:00 4.8 7 Noroeste 10 Noroeste 0 -- -- 97
2020-04-02 04:00:00 5.3 0 Calma 7 Noroeste 0 -- -- 96
2020-04-02 03:00:00 6.3 4 Noroeste 14 Noroeste 0 -- -- 94
2020-04-02 02:00:00 7.1 6 Oeste 14 Oeste 0 -- -- 96
2020-04-02 01:00:00 7.5 4 Sur 10 Sudoeste 0 -- -- 97
2020-04-02 00:00:00 7.7 3 Sur 14 Sur 0.6 -- -- 97
2020-04-01 23:00:00 7.6 3 Sur 21 Sur 4.2 -- -- 96
2020-04-01 22:00:00 7.8 10 Sur 17 Sur 0.4 -- -- 94
2020-04-01 21:00:00 8 6 Sur 10 Sur 0.4 -- -- 94
2020-04-01 20:00:00 8.3 4 Sur 22 Sur 1.4 -- -- 90
2020-04-01 19:00:00 9.9 14 Sur 24 Sur 0 -- -- 79
2020-04-01 18:00:00 10.2 11 Sur 23 Sur 1 -- -- 84
2020-04-01 17:00:00 8.8 8 Sur 26 Sur 0.4 -- -- 88
2020-04-01 16:00:00 8.3 7 Sur 22 Oeste 1.8 -- -- 90
2020-04-01 15:00:00 9.6 13 Noroeste 27 Oeste 0.2 -- -- 78
2020-04-01 14:00:00 11.9 11 Sudoeste 31 Sur 0 -- -- 65
2020-04-01 13:00:00 11.3 12 Sur 26 Sur 0 -- -- 69
2020-04-01 12:00:00 9.3 8 Sur 19 Sur 0 -- -- 74
2020-04-01 11:00:00 8.7 8 Sudoeste 20 Sudoeste 0 -- -- 77
2020-04-01 10:00:00 4.4 5 Sudeste 8 Sudeste 0 -- -- 99
2020-04-01 09:00:00 1 0 Calma 4 Norte 0 -- -- 99
2020-04-01 08:00:00 -0.1 0 Calma 2 Sur 0 -- -- 98
2020-04-01 07:00:00 0.5 0 Calma 4 Sudeste 0 -- -- 98
2020-04-01 06:00:00 1.6 0 Calma 4 Oeste 0 -- -- 97
2020-04-01 05:00:00 2.1 2 Noroeste 6 Noroeste 0 -- -- 96
2020-04-01 04:00:00 3.3 0 Calma 3 Noroeste 0 -- -- 94
2020-04-01 03:00:00 4.7 0 Calma 7 Oeste 0 -- -- 93
2020-04-01 02:00:00 4.9 0 Calma 5 Oeste 0 -- -- 96
2020-04-01 01:00:00 4.9 0 Calma 9 Oeste 0 -- -- 95
2020-04-01 00:00:00 5.4 3 Oeste 11 Oeste 0 -- -- 94
2020-03-31 23:00:00 5.8 0 Calma 9 Noroeste 0 -- -- 94
2020-03-31 22:00:00 7.1 4 Noroeste 13 Noroeste 0 -- -- 91
2020-03-31 21:00:00 8 3 Noroeste 15 Noroeste 0 -- -- 89
2020-03-31 20:00:00 9.1 5 Oeste 27 Oeste 0 -- -- 84
2020-03-31 19:00:00 10.3 12 Oeste 32 Noroeste 0 -- -- 85
2020-03-31 18:00:00 12.6 12 Oeste 27 Oeste 0 -- -- 79
2020-03-31 17:00:00 12.5 13 Noroeste 28 Oeste 0 -- -- 80
2020-03-31 16:00:00 11.9 6 Sudoeste 18 Sudeste 3.4 -- -- 90
2020-03-31 15:00:00 11.5 8 Sudoeste 23 Sur 0.6 -- -- 89
2020-03-31 14:00:00 11.4 8 Sudoeste 27 Sur 1 -- -- 92
2020-03-31 13:00:00 12.7 12 Sur 28 Sur 0 -- -- 84
2020-03-31 12:00:00 10.8 9 Sur 26 Sur 0 -- -- 90
2020-03-31 11:00:00 9.3 9 Sur 21 Sur 0 -- -- 96
2020-03-31 10:00:00 9 9 Sur 19 Sudoeste 0 -- -- 97
2020-03-31 09:00:00 7.5 3 Sur 9 Sudoeste 0 -- -- 98
2020-03-31 08:00:00 7.6 0 Calma 9 Oeste 0.4 -- -- 98
2020-03-31 07:00:00 7.9 5 Noroeste 8 Noroeste 0.6 -- -- 98
2020-03-31 06:00:00 8 3 Sur 22 Sur 4.2 -- -- 98
2020-03-31 05:00:00 8.2 12 Sur 25 Sur 1 -- -- 97
2020-03-31 04:00:00 8.4 10 Sur 23 Sur 1 -- -- 96
2020-03-31 03:00:00 8.3 7 Sudeste 17 Sur 0.2 -- -- 95
2020-03-31 02:00:00 7.9 9 Sudeste 25 Sudeste 0 -- -- 95
2020-03-31 01:00:00 7.9 10 Sur 23 Sudeste 0 -- -- 93
2020-03-31 00:00:00 7.9 9 Sur 18 Sur 0 -- -- 91
2020-03-30 23:00:00 7.4 2 Sudeste 12 Sur 0 -- -- 94
2020-03-30 22:00:00 7.8 8 Sur 17 Sur 0 -- -- 94
2020-03-30 21:00:00 8.3 7 Sudeste 24 Sur 0 -- -- 94
2020-03-30 20:00:00 9.2 12 Sur 24 Sur 0.2 -- -- 91
2020-03-30 19:00:00 9 10 Sur 19 Sur 0.8 -- -- 96
2020-03-30 18:00:00 8.7 9 Sur 15 Sur 2.2 -- -- 94
2020-03-30 17:00:00 9.1 3 Sudoeste 13 Oeste 2 -- -- 89
2020-03-30 16:00:00 10.1 7 Sudoeste 25 Oeste 1.6 -- -- 83
2020-03-30 15:00:00 13.5 4 Oeste 20 Sur 0 -- -- 70
2020-03-30 14:00:00 13.6 10 Sur 18 Sur 0 -- -- 70
2020-03-30 13:00:00 12.6 14 Sur 24 Sudeste 0 -- -- 71
2020-03-30 12:00:00 12.3 13 Sudeste 20 Sudeste 0 -- -- 77
2020-03-30 11:00:00 10.7 4 Sur 10 Sudoeste 0 -- -- 88
2020-03-30 10:00:00 8.6 0 Calma 4 Nordeste 0 -- -- 99
2020-03-30 09:00:00 6.8 2 Norte 4 Nordeste 0 -- -- 100
2020-03-30 08:00:00 5.3 2 Noroeste 3 Norte 0 -- -- 98
2020-03-30 07:00:00 4.9 0 Calma 3 Norte 0 -- -- 98
2020-03-30 06:00:00 5 0 Calma 4 Noroeste 0 -- -- 98
2020-03-30 05:00:00 5.5 0 Calma 4 Sudeste 0 -- -- 97
2020-03-30 04:00:00 6.6 0 Calma 7 Sudoeste 0 -- -- 98
2020-03-30 03:00:00 6.6 3 Oeste 6 Oeste 0 -- -- 97
2020-03-30 02:00:00 6.4 3 Noroeste 5 Noroeste 0 -- -- 95
2020-03-30 01:00:00 7.6 0 Calma 5 Noroeste 0 -- -- 94
2020-03-30 00:00:00 8.7 0 Calma 5 Oeste 0 -- -- 90
2020-03-29 23:00:00 10.4 4 Oeste 6 Sudoeste 0 -- -- 86
2020-03-29 22:00:00 11.2 0 Calma 5 Sur 0 -- -- 85
2020-03-29 21:00:00 12.1 3 Sur 13 Sudeste 0 -- -- 79
2020-03-29 20:00:00 13.6 8 Sudeste 14 Sudeste 0 -- -- 72
2020-03-29 19:00:00 14 3 Nordeste 12 Noroeste 0 -- -- 65
2020-03-29 18:00:00 14.8 7 Noroeste 14 Noroeste 0 -- -- 63
2020-03-29 17:00:00 15.8 6 Noroeste 14 Norte 0 -- -- 61
2020-03-29 16:00:00 16.3 7 Norte 13 Noroeste 0 -- -- 59
2020-03-29 15:00:00 17.2 5 Sur 14 Sur 0 -- -- 52
2020-03-29 14:00:00 16.5 5 Sudoeste 15 Sur 0 -- -- 60
2020-03-29 13:00:00 15 4 Sudeste 13 Sudeste 0 -- -- 66
2020-03-29 12:00:00 14.2 4 Sur 12 Sur 0 -- -- 69
2020-03-29 11:00:00 11.3 5 Sudeste 8 Sudeste 0 -- -- 86
2020-03-29 10:00:00 7.6 3 Sudeste 5 Sur 0 -- -- 97
2020-03-29 09:00:00 4.9 0 Calma 2 Sudoeste 0 -- -- 98
2020-03-29 08:00:00 4.2 0 Calma 3 Sudeste 0 -- -- 96
2020-03-29 07:00:00 5.2 0 Calma 6 Oeste 0 -- -- 94
2020-03-29 06:00:00 5.9 2 Noroeste 7 Noroeste 0 -- -- 94
2020-03-29 05:00:00 5.8 0 Calma 10 Norte 0 -- -- 95
2020-03-29 03:00:00 6.3 0 Calma 2 Este 0 -- -- 95
2020-03-29 01:00:00 6.4 0 Calma 4 Sur 0 -- -- 94
2020-03-29 00:00:00 7 0 Calma 4 Sudeste 0 -- -- 88
2020-03-28 23:00:00 8.2 0 Calma 8 Sur 0 -- -- 83
2020-03-28 22:00:00 10.2 2 Sur 6 Oeste 0 -- -- 73
2020-03-28 21:00:00 12.4 3 Sur 8 Sudoeste 0 -- -- 66
2020-03-28 20:00:00 13.5 4 Sudeste 9 Sudeste 0 -- -- 60
2020-03-28 19:00:00 14.7 4 Este 12 Este 0 -- -- 53
2020-03-28 18:00:00 15.6 8 Sudeste 14 Sudeste 0 -- -- 50
2020-03-28 17:00:00 16.3 10 Sudeste 21 Sur 0 -- -- 49
2020-03-28 16:00:00 15.3 6 Sur 19 Sudeste 0 -- -- 49
2020-03-28 15:00:00 16.2 10 Sudeste 21 Sudeste 0 -- -- 45
2020-03-28 14:00:00 14.9 11 Sur 22 Sudoeste 0 -- -- 50
2020-03-28 13:00:00 13.2 12 Sur 22 Sudeste 0 -- -- 62
2020-03-28 12:00:00 11.4 4 Este 14 Este 0 -- -- 75
2020-03-28 11:00:00 12 7 Sur 14 Sur 0 -- -- 72
2020-03-28 10:00:00 8.1 3 Sudeste 6 Sur 0 -- -- 90
2020-03-28 09:00:00 4 0 Calma 2 Norte 0 -- -- 97
2020-03-28 08:00:00 1.8 0 Calma 5 Norte 0 -- -- 97
2020-03-28 07:00:00 1.1 0 Calma 4 Norte 0 -- -- 97
2020-03-28 06:00:00 1.4 2 Norte 5 Nordeste 0 -- -- 96
2020-03-28 05:00:00 1.8 2 Norte 6 Nordeste 0 -- -- 95
2020-03-28 04:00:00 2.5 3 Norte 11 Nordeste 0 -- -- 93
2020-03-28 03:00:00 3 4 Norte 9 Norte 0 -- -- 92
2020-03-28 02:00:00 3.6 5 Norte 8 Nordeste 0 -- -- 91
2020-03-28 01:00:00 4.6 2 Norte 11 Este 0 -- -- 90
2020-03-28 00:00:00 5.3 4 Este 12 Nordeste 0 -- -- 88
2020-03-27 23:00:00 6 5 Nordeste 10 Nordeste 0 -- -- 89
2020-03-27 22:00:00 7 6 Nordeste 11 Nordeste 0 -- -- 86
2020-03-27 21:00:00 7.4 5 Norte 12 Nordeste 0 -- -- 85
2020-03-27 20:00:00 8.8 5 Norte 17 Nordeste 0 -- -- 80
2020-03-27 19:00:00 10.7 10 Nordeste 24 Nordeste 0 -- -- 74
2020-03-27 18:00:00 11.8 5 Nordeste 16 Nordeste 0 -- -- 72
2020-03-27 17:00:00 12.7 9 Nordeste 17 Norte 0 -- -- 68
2020-03-27 16:00:00 12.9 12 Norte 20 Norte 0 -- -- 65
2020-03-27 15:00:00 12.1 11 Norte 19 Norte 0 -- -- 73
2020-03-27 14:00:00 11.9 6 Norte 16 Norte 0 -- -- 72
2020-03-27 13:00:00 12.2 4 Noroeste 13 Sur 0 -- -- 73
2020-03-27 12:00:00 10.5 5 Sudoeste 15 Sudoeste 0 -- -- 79
2020-03-27 11:00:00 7 4 Noroeste 12 Norte 0 -- -- 89
2020-03-27 10:00:00 5.9 4 Noroeste 12 Norte 0 -- -- 93
2020-03-27 09:00:00 5.3 6 Noroeste 13 Noroeste 0 -- -- 96
2020-03-27 08:00:00 4.8 5 Noroeste 16 Noroeste 0 -- -- 95
2020-03-27 07:00:00 4.8 5 Oeste 16 Oeste 0 -- -- 96
2020-03-27 06:00:00 5 6 Oeste 17 Noroeste 0 -- -- 96
2020-03-27 05:00:00 5.1 9 Oeste 18 Oeste 0 -- -- 96
2020-03-27 04:00:00 5 2 Noroeste 17 Noroeste 0 -- -- 96
2020-03-27 03:00:00 5.2 4 Noroeste 10 Noroeste 0 -- -- 94
2020-03-27 02:00:00 6.4 2 Oeste 20 Noroeste 0 -- -- 95
2020-03-27 01:00:00 6.7 8 Noroeste 20 Noroeste 0 -- -- 94
2020-03-27 00:00:00 7.6 6 Noroeste 19 Noroeste 0 -- -- 90
2020-03-26 23:00:00 8.4 7 Noroeste 18 Noroeste 0 -- -- 86
2020-03-26 22:00:00 9.3 5 Noroeste 15 Oeste 0 -- -- 82
2020-03-26 21:00:00 10.5 8 Noroeste 17 Noroeste 0 -- -- 75
2020-03-26 20:00:00 12 7 Noroeste 28 Noroeste 0 -- -- 69
2020-03-26 19:00:00 14.2 14 Noroeste 28 Noroeste 0 -- -- 59
2020-03-26 18:00:00 15.8 18 Noroeste 34 Noroeste 0 -- -- 52
2020-03-26 17:00:00 16.8 16 Noroeste 37 Noroeste 0 -- -- 51
2020-03-26 16:00:00 16.7 18 Noroeste 36 Noroeste 0.2 -- -- 52
2020-03-26 15:00:00 16.1 14 Noroeste 31 Oeste 0 -- -- 63
2020-03-26 14:00:00 15.6 14 Noroeste 26 Noroeste 0 -- -- 66
2020-03-26 13:00:00 14.4 11 Noroeste 22 Noroeste 0 -- -- 70
2020-03-26 12:00:00 13.9 8 Noroeste 16 Noroeste 0 -- -- 77
2020-03-26 11:00:00 12.3 5 Noroeste 14 Noroeste 0 -- -- 80
2020-03-26 10:00:00 9.7 6 Norte 15 Noroeste 0 -- -- 89
2020-03-26 09:00:00 7.8 4 Noroeste 10 Oeste 0 -- -- 99
2020-03-26 08:00:00 6.1 0 Calma 5 Este 0 -- -- 99
2020-03-26 07:00:00 5.6 0 Calma 6 Sudoeste 0 -- -- 98
2020-03-26 06:00:00 6.9 3 Sur 5 Sur 0 -- -- 98
2020-03-26 05:00:00 8.1 0 Calma 9 Oeste 0 -- -- 98
2020-03-26 04:00:00 7.9 0 Calma 12 Oeste 0 -- -- 97
2020-03-26 03:00:00 8.7 0 Calma 12 Oeste 0 -- -- 96
2020-03-26 02:00:00 9.6 6 Oeste 13 Noroeste 0 -- -- 96
2020-03-26 01:00:00 10.1 6 Oeste 18 Oeste 0 -- -- 96
2020-03-26 00:00:00 10.7 4 Noroeste 22 Oeste 0 -- -- 95
2020-03-25 23:00:00 10.8 8 Oeste 23 Noroeste 0 -- -- 95
2020-03-25 22:00:00 10.7 3 Sudoeste 8 Norte 0 -- -- 94
2020-03-25 21:00:00 11.4 3 Oeste 10 Oeste 0 -- -- 85
2020-03-25 20:00:00 11.8 4 Noroeste 9 Oeste 0 -- -- 85
2020-03-25 19:00:00 13.2 5 Oeste 12 Oeste 0 -- -- 77
2020-03-25 18:00:00 14.3 5 Oeste 16 Noroeste 0.2 -- -- 72
2020-03-25 17:00:00 15 8 Noroeste 17 Norte 0 -- -- 70
2020-03-25 16:00:00 16.7 9 Norte 16 Norte 0 -- -- 58
2020-03-25 15:00:00 17.2 3 Sur 15 Noroeste 0 -- -- 58
2020-03-25 14:00:00 15.2 6 Noroeste 18 Noroeste 0 -- -- 70
2020-03-25 13:00:00 15.2 6 Norte 16 Norte 0 -- -- 70
2020-03-25 12:00:00 14.8 7 Norte 21 Norte 0 -- -- 73
2020-03-25 11:00:00 14.5 4 Oeste 10 Sur 0 -- -- 70
2020-03-25 10:00:00 12 5 Nordeste 9 Nordeste 0 -- -- 81
2020-03-25 09:00:00 9.3 2 Este 8 Norte 0 -- -- 90
2020-03-25 08:00:00 7.8 3 Norte 6 Norte 0 -- -- 94
2020-03-25 07:00:00 7.8 3 Oeste 5 Sudoeste 0 -- -- 93
2020-03-25 06:00:00 7.4 0 Calma 6 Este 0 -- -- 94
2020-03-25 05:00:00 6.7 0 Calma 7 Norte 0 -- -- 97
2020-03-25 04:00:00 5.4 3 Norte 4 Norte 0 -- -- 95
2020-03-25 03:00:00 7 0 Calma 5 Nordeste 0 -- -- 93
2020-03-25 02:00:00 7.8 0 Calma 5 Nordeste 0 -- -- 92
2020-03-25 01:00:00 8.1 3 Nordeste 10 Este 0 -- -- 88
2020-03-25 00:00:00 9.2 4 Noroeste 18 Este 0 -- -- 84
2020-03-24 23:00:00 10.5 8 Nordeste 22 Este 0 -- -- 79
2020-03-24 22:00:00 11.9 10 Este 21 Este 0 -- -- 77
2020-03-24 21:00:00 12.9 9 Nordeste 16 Nordeste 0 -- -- 75
2020-03-24 20:00:00 13.5 9 Nordeste 20 Nordeste 0 -- -- 72
2020-03-24 19:00:00 14.3 10 Nordeste 26 Este 0 -- -- 69
2020-03-24 18:00:00 15.4 12 Nordeste 32 Nordeste 0 -- -- 64
2020-03-24 17:00:00 15 15 Nordeste 26 Nordeste 0 -- -- 65
2020-03-24 16:00:00 15.1 14 Este 31 Nordeste 0 -- -- 63
2020-03-24 15:00:00 15 13 Este 32 Este 0 -- -- 65
2020-03-24 14:00:00 14.6 17 Nordeste 32 Este 0.2 -- -- 64
2020-03-24 13:00:00 14.9 17 Este 38 Este 0 -- -- 68
2020-03-24 12:00:00 13.2 14 Este 32 Nordeste 0 -- -- 75
2020-03-24 11:00:00 11.4 14 Este 26 Este 0 -- -- 84
2020-03-24 10:00:00 9.4 11 Este 25 Nordeste 0 -- -- 92
2020-03-24 09:00:00 8.3 9 Este 19 Este 0 -- -- 97
2020-03-24 08:00:00 7.1 3 Nordeste 14 Nordeste 0 -- -- 99
2020-03-24 07:00:00 6.9 6 Nordeste 17 Nordeste 0 -- -- 98
2020-03-24 06:00:00 6.7 5 Nordeste 13 Nordeste 0 -- -- 97
2020-03-24 05:00:00 7 5 Nordeste 13 Nordeste 0 -- -- 97
2020-03-24 04:00:00 6.6 9 Nordeste 14 Norte 0 -- -- 98
2020-03-24 03:00:00 6.5 7 Nordeste 14 Nordeste 0 -- -- 97
2020-03-24 02:00:00 6.6 0 Calma 12 Este 0 -- -- 94
2020-03-24 01:00:00 7.7 5 Sudeste 13 Este 0 -- -- 94
2020-03-24 00:00:00 7.9 3 Sur 7 Sudeste 1 -- -- 96
2020-03-23 23:00:00 7.8 4 Sudeste 18 Sudeste 0.4 -- -- 95
2020-03-23 22:00:00 6.9 0 Calma 15 Sur 0 -- -- 91
2020-03-23 21:00:00 8.2 3 Norte 8 Nordeste 0 -- -- 84
2020-03-23 20:00:00 9.5 6 Nordeste 13 Nordeste 0 -- -- 80
2020-03-23 19:00:00 11.1 6 Nordeste 13 Este 0 -- -- 68
2020-03-23 18:00:00 11.6 6 Este 19 Este 0.2 -- -- 68
2020-03-23 17:00:00 9.7 8 Este 40 Este 0.4 -- -- 85
2020-03-23 16:00:00 14.4 15 Nordeste 27 Nordeste 0 -- -- 57
2020-03-23 15:00:00 14.5 11 Este 24 Sudeste 0 -- -- 57
2020-03-23 14:00:00 13.6 12 Este 22 Este 0 -- -- 61
2020-03-23 13:00:00 12.6 9 Este 24 Este 0 -- -- 67
2020-03-23 12:00:00 11.9 12 Este 26 Este 0 -- -- 71
2020-03-23 11:00:00 11.7 8 Este 25 Este 0 -- -- 77
2020-03-23 10:00:00 10.1 12 Este 23 Este 0 -- -- 83
2020-03-23 09:00:00 8.5 6 Este 11 Nordeste 0 -- -- 90
2020-03-23 08:00:00 5.8 4 Norte 6 Norte 0 -- -- 97
2020-03-23 07:00:00 6.1 0 Calma 4 Norte 0 -- -- 98
2020-03-23 06:00:00 6.1 0 Calma 4 Norte 0 -- -- 98
2020-03-23 05:00:00 5.8 3 Norte -- -- 0 -- -- 98
2020-03-23 04:00:00 5.5 2 Noroeste 4 Norte 0 -- -- 95
2020-03-23 03:00:00 6.8 0 Calma 3 Norte 0 -- -- 94
2020-03-23 02:00:00 7.4 0 Calma 5 Norte 0 -- -- 93
2020-03-23 01:00:00 8.2 3 Norte 8 Nordeste 0 -- -- 89
2020-03-23 00:00:00 8.1 4 Norte 8 Noroeste 0 -- -- 91
2020-03-22 23:00:00 8.5 4 Noroeste 7 Norte 0 -- -- 88
2020-03-22 22:00:00 7.8 6 Norte 9 Norte 0 -- -- 87
2020-03-22 21:00:00 6.4 4 Noroeste 5 Oeste 0 -- -- 92
2020-03-22 20:00:00 7.7 2 Noroeste 6 Oeste 0 -- -- 83
2020-03-22 19:00:00 10.3 0 Calma 28 Este 0 -- -- 73
2020-03-22 18:00:00 13.1 6 Nordeste 15 Nordeste 0 -- -- 57
2020-03-22 17:00:00 11.8 7 Nordeste 31 Nordeste 0 -- -- 60
2020-03-22 16:00:00 12.6 6 Nordeste 22 Este 0 -- -- 62
2020-03-22 15:00:00 13.5 8 Este 24 Este 0 -- -- 64
2020-03-22 14:00:00 12.4 8 Este 23 Norte 0 -- -- 67
2020-03-22 13:00:00 10.7 5 Este 18 Este 0 -- -- 76
2020-03-22 12:00:00 9.8 10 Este 22 Nordeste 0 -- -- 78
2020-03-22 11:00:00 8 11 Nordeste 19 Nordeste 0 -- -- 89
2020-03-22 10:00:00 7.7 8 Nordeste 19 Nordeste 0 -- -- 89
2020-03-22 09:00:00 6.7 6 Este 15 Este 0 -- -- 97
2020-03-22 08:00:00 6.1 4 Nordeste 7 Nordeste 0 -- -- 98
2020-03-22 07:00:00 6 0 Calma 5 Nordeste 0 -- -- 98
2020-03-22 06:00:00 6 2 Sur 6 Sudeste 0 -- -- 98
2020-03-22 05:00:00 6.1 4 Sudeste 8 Sudeste 0 -- -- 98
2020-03-22 04:00:00 6.3 3 Nordeste 5 Nordeste 0 -- -- 98
2020-03-22 03:00:00 6.4 3 Este 5 Nordeste 0.2 -- -- 98
2020-03-22 02:00:00 6.3 0 Calma 3 Sur 0 -- -- 97
2020-03-22 01:00:00 6.3 0 Calma 5 Sur 0 -- -- 97
2020-03-22 00:00:00 6.3 0 Calma 6 Sur 0 -- -- 97
2020-03-21 23:00:00 6.3 5 Sur 13 Sur 0.2 -- -- 97
2020-03-21 22:00:00 6.7 5 Sur 11 Sur 0 -- -- 95
2020-03-21 21:00:00 6.9 0 Calma 5 Sur 0 -- -- 96
2020-03-21 20:00:00 7 2 Sudoeste 6 Norte 0 -- -- 92
2020-03-21 19:00:00 7.4 0 Calma 9 Sudoeste 1.2 -- -- 90
2020-03-21 18:00:00 7.6 2 Oeste 14 Oeste 0.6 -- -- 91
2020-03-21 17:00:00 8.8 7 Sur 24 Sudeste 0 -- -- 87
2020-03-21 16:00:00 8.8 13 Sudeste 24 Sur 0.8 -- -- 90
2020-03-21 15:00:00 8.4 15 Sudeste 33 Sudeste 0.2 -- -- 89
2020-03-21 14:00:00 8.7 11 Sudeste 35 Sur 0.2 -- -- 88
2020-03-21 13:00:00 11.6 16 Sur 31 Sur 0 -- -- 72
2020-03-21 12:00:00 10.3 16 Sur 30 Sur 0 -- -- 78
2020-03-21 11:00:00 10.4 14 Sur 31 Sur 0 -- -- 75
2020-03-21 10:00:00 8.9 14 Sur 25 Sur 0 -- -- 86
2020-03-21 09:00:00 7.1 8 Sur 17 Sur 0 -- -- 94
2020-03-21 08:00:00 5.9 7 Sur 18 Sudoeste 0 -- -- 98
2020-03-21 07:00:00 5.8 4 Sur 10 Sur 0 -- -- 97
2020-03-21 06:00:00 6.2 4 Sudoeste 14 Sudoeste 0 -- -- 96
2020-03-21 05:00:00 6.6 5 Sudoeste 19 Oeste 0 -- -- 95
2020-03-21 04:00:00 6.9 4 Oeste 15 Oeste 0 -- -- 96
2020-03-21 03:00:00 7.1 4 Oeste 19 Noroeste 0.4 -- -- 97
2020-03-21 02:00:00 7.3 9 Noroeste 18 Noroeste 2 -- -- 97
2020-03-21 01:00:00 8 9 Noroeste 18 Noroeste 6.2 -- -- 97
2020-03-21 00:00:00 8.9 2 Sudeste 7 Sudoeste 3.2 -- -- 98
2020-03-20 23:00:00 8.8 3 Sudoeste 14 Noroeste 4 -- -- 98
2020-03-20 22:00:00 8.9 4 Noroeste 21 Noroeste 7.2 -- -- 97
2020-03-20 21:00:00 9.2 13 Noroeste 26 Noroeste 6.4 -- -- 95
2020-03-20 20:00:00 11.5 2 Sur 12 Sudeste 0 -- -- 92
2020-03-20 19:00:00 11.6 7 Sur 14 Sur 0 -- -- 91
2020-03-20 18:00:00 11.9 9 Sur 18 Sudeste 0.4 -- -- 92
2020-03-20 17:00:00 11.7 8 Sur 24 Sur 0.6 -- -- 93
2020-03-20 16:00:00 12.2 12 Sur 33 Sur 0 -- -- 91
2020-03-20 15:00:00 12.1 6 Sur 15 Sur 1.4 -- -- 92
2020-03-20 14:00:00 12.7 9 Sur 22 Sudeste 0 -- -- 85
2020-03-20 13:00:00 12.9 5 Sur 10 Sur 0 -- -- 85
2020-03-20 12:00:00 12.6 4 Sudeste 7 Sur 0 -- -- 85
2020-03-20 11:00:00 12.2 2 Noroeste 9 Oeste 0 -- -- 86
2020-03-20 10:00:00 12.2 3 Sudoeste 9 Sudoeste 0 -- -- 85
2020-03-20 09:00:00 11.2 2 Sur 4 Sur 0 -- -- 93
2020-03-20 08:00:00 10.4 0 Calma 5 Sur 0 -- -- 95
2020-03-20 07:00:00 10.5 0 Calma 5 Sur 0 -- -- 94
2020-03-20 06:00:00 10.7 0 Calma 10 Sur 0 -- -- 94
2020-03-20 05:00:00 10.6 4 Sudoeste 11 Sudoeste 0 -- -- 91
2020-03-20 04:00:00 11.3 4 Sur 13 Sur 0 -- -- 86
2020-03-20 03:00:00 12 6 Sudoeste 12 Sur 0 -- -- 82
2020-03-20 02:00:00 11.8 4 Sudoeste 15 Sudoeste 0 -- -- 82
2020-03-20 01:00:00 11.3 5 Sudoeste 13 Sur 0 -- -- 86
2020-03-20 00:00:00 9.8 3 Sudoeste 6 Sudoeste 0 -- -- 90
2020-03-19 23:00:00 10.5 0 Calma 4 Sudoeste 0 -- -- 87
2020-03-19 22:00:00 11.7 2 Sudoeste 6 Oeste 0 -- -- 83
2020-03-19 21:00:00 13.4 0 Calma 5 Sur 0 -- -- 79
2020-03-19 20:00:00 14.5 2 Norte 5 Noroeste 0 -- -- 72
2020-03-19 19:00:00 16.2 3 Norte 9 Nordeste 0 -- -- 65
2020-03-19 18:00:00 16.8 7 Nordeste 13 Nordeste 0 -- -- 60
2020-03-19 17:00:00 17.1 9 Norte 17 Norte 0 -- -- 60
2020-03-19 16:00:00 18.2 6 Este 17 Este 0 -- -- 59
2020-03-19 15:00:00 17.2 8 Este 15 Este 0 -- -- 59
2020-03-19 14:00:00 16.5 7 Este 19 Este 0 -- -- 63
2020-03-19 13:00:00 16 10 Este 19 Este 0 -- -- 63
2020-03-19 12:00:00 14.4 9 Este 18 Este 0 -- -- 74
2020-03-19 11:00:00 13.2 9 Sudeste 14 Sudeste 0 -- -- 79
2020-03-19 10:00:00 10.9 4 Este 10 Este 0 -- -- 87
2020-03-19 09:00:00 9 0 Calma 9 Nordeste 0 -- -- 92
2020-03-19 08:00:00 7.5 4 Norte 15 Norte 0 -- -- 94
2020-03-19 07:00:00 7.3 8 Norte 12 Noroeste 0 -- -- 96
2020-03-19 06:00:00 6.4 5 Noroeste 7 Noroeste 0 -- -- 95
2020-03-19 05:00:00 7.1 4 Noroeste 8 Noroeste 0 -- -- 95
2020-03-19 04:00:00 7.3 2 Noroeste 4 Norte 0 -- -- 93
2020-03-19 03:00:00 8.1 4 Norte 6 Norte 0 -- -- 90
2020-03-19 02:00:00 10 0 Calma 10 Sudeste 0 -- -- 83
2020-03-19 01:00:00 10.3 2 Sur 8 Nordeste 0 -- -- 83
2020-03-19 00:00:00 10.8 6 Nordeste 11 Norte 0 -- -- 81
2020-03-18 23:00:00 12.3 5 Norte 15 Este 0 -- -- 77
2020-03-18 22:00:00 13.7 10 Este 26 Este 0 -- -- 71
2020-03-18 21:00:00 15.2 10 Nordeste 19 Este 0 -- -- 63
2020-03-18 20:00:00 16.2 6 Nordeste 13 Nordeste 0 -- -- 60
2020-03-18 19:00:00 18.1 8 Nordeste 19 Este 0 -- -- 52
2020-03-18 18:00:00 19 12 Nordeste 28 Sudeste 0 -- -- 55
2020-03-18 17:00:00 19.5 12 Este 33 Este 0 -- -- 55
2020-03-18 16:00:00 18.9 18 Nordeste 31 Nordeste 0 -- -- 56
2020-03-18 15:00:00 18.6 14 Nordeste 30 Nordeste 0 -- -- 58
2020-03-18 14:00:00 17.5 15 Nordeste 30 Este 0 -- -- 61
2020-03-18 13:00:00 16.1 14 Este 29 Este 0 -- -- 65
2020-03-18 12:00:00 14.3 14 Este 28 Este 0 -- -- 72
2020-03-18 11:00:00 12.6 14 Este 31 Nordeste 0 -- -- 79
2020-03-18 10:00:00 10.6 13 Este 30 Este 0 -- -- 84
2020-03-18 09:00:00 9.1 11 Nordeste 32 Este 0 -- -- 88
2020-03-18 08:00:00 8.8 13 Este 30 Nordeste 0 -- -- 90
2020-03-18 07:00:00 9.1 12 Este 30 Este 0 -- -- 91
2020-03-18 06:00:00 9.4 12 Nordeste 23 Este 0 -- -- 93
2020-03-18 05:00:00 9.5 14 Nordeste 31 Nordeste 0 -- -- 93
2020-03-18 04:00:00 9.4 12 Este 28 Nordeste 0 -- -- 93
2020-03-18 03:00:00 9.6 11 Este 26 Este 0 -- -- 91
2020-03-18 02:00:00 10.1 15 Este 30 Este 0 -- -- 84
2020-03-18 01:00:00 9.9 12 Este 27 Este 0 -- -- 74
2020-03-18 00:00:00 10.1 14 Nordeste 22 Nordeste 0 -- -- 66
2020-03-17 23:00:00 10.3 12 Nordeste 19 Nordeste 0 -- -- 63
2020-03-17 22:00:00 10.1 10 Norte 15 Nordeste 0 -- -- 61
2020-03-17 21:00:00 11.6 5 Nordeste 10 Nordeste 0 -- -- 56
2020-03-17 20:00:00 12 6 Este 15 Este 0 -- -- 51
2020-03-17 19:00:00 13.2 13 Este 35 Este 0 -- -- 47
2020-03-17 18:00:00 14.2 16 Sudeste 28 Este 0 -- -- 42
2020-03-17 17:00:00 14.7 17 Este 32 Sudeste 0 -- -- 46
2020-03-17 16:00:00 14.2 20 Sudeste 40 Este 0 -- -- 49
2020-03-17 15:00:00 12.2 25 Sudeste 42 Este 0 -- -- 58
2020-03-17 14:00:00 11.4 20 Sudeste 43 Este 0 -- -- 64
2020-03-17 13:00:00 9.9 21 Sudeste 42 Sudeste 0 -- -- 77
2020-03-17 12:00:00 9.6 22 Sudeste 39 Sudeste 0 -- -- 79
2020-03-17 11:00:00 7.1 17 Este 33 Este 0 -- -- 92
2020-03-17 10:00:00 5.3 18 Este 33 Este 0 -- -- 94
2020-03-17 09:00:00 4.1 8 Este 17 Este 0 -- -- 96
2020-03-17 08:00:00 3.4 7 Este 22 Nordeste 0 -- -- 95
2020-03-17 07:00:00 3.6 9 Nordeste 19 Nordeste 0 -- -- 96
2020-03-17 06:00:00 3.9 11 Este 20 Nordeste 0.2 -- -- 96
2020-03-17 05:00:00 3.8 9 Nordeste 19 Este 0.4 -- -- 96
2020-03-17 04:00:00 4 8 Nordeste 20 Nordeste 0 -- -- 94
2020-03-17 03:00:00 4 7 Nordeste 14 Norte 0 -- -- 94
2020-03-17 02:00:00 4 6 Norte 14 Nordeste 0 -- -- 94
2020-03-17 01:00:00 4.1 5 Norte 19 Norte 0 -- -- 94
2020-03-17 00:00:00 5 5 Norte 19 Noroeste 0 -- -- 94
2020-03-16 23:00:00 5.3 13 Norte 31 Noroeste 0 -- -- 92
2020-03-16 22:00:00 5.3 19 Norte 38 Noroeste 0.4 -- -- 92
2020-03-16 21:00:00 5.5 13 Norte 28 Norte 0.8 -- -- 92
2020-03-16 20:00:00 5.6 11 Noroeste 41 Norte 0.6 -- -- 91
2020-03-16 19:00:00 6.7 17 Norte 39 Nordeste 0.2 -- -- 84
2020-03-16 18:00:00 8.2 19 Norte 41 Norte 0 -- -- 73
2020-03-16 17:00:00 6.9 24 Norte 48 Noroeste 0.4 -- -- 83
2020-03-16 16:00:00 8.8 27 Norte 50 Norte 0 -- -- 65
2020-03-16 15:00:00 10.2 20 Norte 40 Norte 0 -- -- 56
2020-03-16 14:00:00 9.4 18 Norte 37 Noroeste 0 -- -- 58
2020-03-16 13:00:00 9.2 18 Noroeste 35 Noroeste 0 -- -- 61
2020-03-16 12:00:00 8.2 14 Noroeste 34 Noroeste 0 -- -- 64
2020-03-16 11:00:00 7.3 18 Noroeste 36 Noroeste 0 -- -- 67
2020-03-16 10:00:00 5.3 17 Noroeste 33 Norte 0 -- -- 78
2020-03-16 09:00:00 3.4 14 Noroeste 26 Noroeste 0 -- -- 89
2020-03-16 08:00:00 2.3 12 Noroeste 24 Noroeste 0 -- -- 94
2020-03-16 07:00:00 2.6 13 Noroeste 30 Noroeste 0 -- -- 94
2020-03-16 06:00:00 2.4 9 Noroeste 21 Noroeste 0 -- -- 92
2020-03-16 05:00:00 2.2 4 Noroeste 15 Noroeste 0 -- -- 90
2020-03-16 04:00:00 2.7 10 Noroeste 20 Noroeste 0 -- -- 87
2020-03-16 03:00:00 3.1 9 Noroeste 22 Norte 0 -- -- 87
2020-03-16 02:00:00 3.8 10 Noroeste 29 Noroeste 0 -- -- 86
2020-03-16 01:00:00 5.2 13 Noroeste 32 Noroeste 0 -- -- 81
2020-03-16 00:00:00 7 13 Noroeste 41 Noroeste 0 -- -- 74
2020-03-15 23:00:00 8.4 19 Noroeste 37 Noroeste 0 -- -- 79
2020-03-15 22:00:00 11.2 18 Noroeste 37 Noroeste 0 -- -- 71
2020-03-15 21:00:00 12.7 18 Noroeste 37 Noroeste 0 -- -- 67
2020-03-15 20:00:00 13.3 14 Noroeste 26 Noroeste 0 -- -- 79
2020-03-15 19:00:00 14.8 14 Noroeste 41 Noroeste 0 -- -- 76
2020-03-15 18:00:00 17.3 13 Noroeste 28 Oeste 0 -- -- 65
2020-03-15 17:00:00 18.8 11 Oeste 33 Oeste 0 -- -- 58
2020-03-15 16:00:00 20.2 10 Sudoeste 26 Sudoeste 0 -- -- 56
2020-03-15 15:00:00 20.2 8 Sudoeste 21 Oeste 0 -- -- 57
2020-03-15 14:00:00 19.8 9 Sudoeste 21 Noroeste 0 -- -- 58
2020-03-15 13:00:00 18.8 6 Oeste 21 Oeste 0 -- -- 64
2020-03-15 12:00:00 18.2 10 Oeste 20 Noroeste 0 -- -- 65
2020-03-15 11:00:00 15.8 4 Oeste 15 Oeste 0 -- -- 74
2020-03-15 10:00:00 13.8 4 Sudeste 6 Sudeste 0 -- -- 88
2020-03-15 09:00:00 9.9 0 Calma 4 Sur 0 -- -- 100
2020-03-15 08:00:00 7 0 Calma 6 Norte 0 -- -- 99
2020-03-15 07:00:00 7.4 0 Calma 4 Noroeste 0 -- -- 98
2020-03-15 06:00:00 7.3 3 Noroeste 4 Noroeste 0 -- -- 97
2020-03-15 05:00:00 8.1 0 Calma 3 Norte 0 -- -- 97
2020-03-15 04:00:00 8.4 3 Noroeste 4 Norte 0 -- -- 96
2020-03-15 03:00:00 9.3 2 Norte 4 Norte 0 -- -- 97
2020-03-15 02:00:00 8.9 0 Calma 5 Norte 0 -- -- 96
2020-03-15 01:00:00 9.3 0 Calma 4 Noroeste 0 -- -- 94
2020-03-15 00:00:00 10.2 3 Noroeste 5 Noroeste 0 -- -- 92
2020-03-14 23:00:00 11.5 3 Noroeste 5 Norte 0 -- -- 89
2020-03-14 22:00:00 13.9 4 Noroeste 11 Noroeste 0 -- -- 82
2020-03-14 21:00:00 15.6 5 Noroeste 9 Noroeste 0 -- -- 78
2020-03-14 20:00:00 17.2 3 Noroeste 17 Noroeste 0 -- -- 71
2020-03-14 19:00:00 18.9 9 Noroeste 22 Noroeste 0 -- -- 65
2020-03-14 18:00:00 19.8 8 Noroeste 17 Noroeste 0 -- -- 61
2020-03-14 17:00:00 19.6 3 Noroeste 10 Norte 0 -- -- 60
2020-03-14 16:00:00 20.1 6 Norte 21 Norte 0 -- -- 58
2020-03-14 15:00:00 22.4 6 Sudeste 16 Sudeste 0 -- -- 50
2020-03-14 14:00:00 21.8 4 Este 11 Este 0 -- -- 52
2020-03-14 13:00:00 20.7 4 Sudeste 12 Este 0 -- -- 52
2020-03-14 12:00:00 19.5 5 Sur 11 Sudeste 0 -- -- 57
2020-03-14 11:00:00 17.5 6 Sudeste 10 Sudeste 0 -- -- 71
2020-03-14 10:00:00 12.8 4 Sudeste 13 Norte 0 -- -- 100
2020-03-14 09:00:00 11.3 5 Norte 12 Norte 0 -- -- 100
2020-03-14 08:00:00 6.5 0 Calma 4 Sudoeste 0 -- -- 99
2020-03-14 07:00:00 6.5 0 Calma 3 Sur 0 -- -- 98
2020-03-14 06:00:00 6.3 0 Calma 4 Noroeste 0 -- -- 98
2020-03-14 05:00:00 6.6 0 Calma 5 Noroeste 0 -- -- 98
2020-03-14 04:00:00 7 0 Calma 7 Norte 0 -- -- 98
2020-03-14 03:00:00 7.6 4 Noroeste 9 Noroeste 0 -- -- 99
2020-03-14 02:00:00 6.8 2 Noroeste 5 Noroeste 0 -- -- 97
2020-03-14 01:00:00 7 3 Noroeste 5 Noroeste 0 -- -- 96
2020-03-14 00:00:00 7.8 0 Calma 5 Norte 0 -- -- 96
2020-03-13 23:00:00 8.5 2 Norte 4 Norte 0 -- -- 94
2020-03-13 22:00:00 9.4 0 Calma 7 Oeste 0 -- -- 93
2020-03-13 21:00:00 10.6 3 Noroeste 13 Noroeste 0 -- -- 87
2020-03-13 20:00:00 12.6 4 Noroeste 8 Noroeste 0 -- -- 79
2020-03-13 19:00:00 15.4 0 Calma 18 Noroeste 0 -- -- 60
2020-03-13 18:00:00 17.1 10 Noroeste 22 Noroeste 0 -- -- 61
2020-03-13 17:00:00 18.7 11 Noroeste 21 Norte 0 -- -- 59
2020-03-13 16:00:00 20.5 8 Oeste 18 Oeste 0 -- -- 53
2020-03-13 15:00:00 20.4 9 Oeste 19 Oeste 0 -- -- 45
2020-03-13 14:00:00 19.4 9 Oeste 22 Oeste 0 -- -- 51
2020-03-13 13:00:00 18.9 9 Noroeste 16 Noroeste 0 -- -- 47
2020-03-13 12:00:00 18.4 6 Noroeste 15 Sur 0 -- -- 54
2020-03-13 11:00:00 14.5 4 Este 12 Sur 0 -- -- 82
2020-03-13 10:00:00 11.3 7 Sudeste 10 Sur 0 -- -- 100
2020-03-13 09:00:00 7.4 0 Calma 5 Norte 0 -- -- 99
2020-03-13 08:00:00 5.9 0 Calma 4 Sur 0 -- -- 98
2020-03-13 07:00:00 6.1 0 Calma 3 Noroeste 0 -- -- 98
2020-03-13 06:00:00 6.8 0 Calma 4 Sudeste 0 -- -- 98
2020-03-13 05:00:00 7.1 0 Calma 3 Noroeste 0 -- -- 98
2020-03-13 04:00:00 7.4 0 Calma 4 Sur 0 -- -- 97
2020-03-13 03:00:00 8.3 0 Calma 3 Sudeste 0 -- -- 97
2020-03-13 02:00:00 8.7 0 Calma 4 Oeste 0 -- -- 96
2020-03-13 01:00:00 8.5 0 Calma 5 Norte 0 -- -- 94
2020-03-13 00:00:00 9.5 3 Noroeste 5 Noroeste 0 -- -- 92
2020-03-12 23:00:00 10.4 3 Norte 5 Noroeste 0 -- -- 90
2020-03-12 22:00:00 12.5 0 Calma 10 Noroeste 0 -- -- 81
2020-03-12 21:00:00 15.1 6 Noroeste 12 Noroeste 0 -- -- 73
2020-03-12 20:00:00 15.9 6 Noroeste 10 Noroeste 0 -- -- 70
2020-03-12 19:00:00 19 5 Noroeste 14 Oeste 0 -- -- 56
2020-03-12 18:00:00 21 5 Oeste 13 Sudoeste 0 -- -- 50
2020-03-12 17:00:00 21.6 9 Sur 19 Sudoeste 0 -- -- 49
2020-03-12 16:00:00 21.9 11 Sur 27 Sur 0 -- -- 43
2020-03-12 15:00:00 20.2 12 Sur 24 Sur 0 -- -- 46
2020-03-12 14:00:00 22.8 13 Sur 24 Sudoeste 0 -- -- 42
2020-03-12 13:00:00 19.7 15 Sur 26 Sur 0 -- -- 49
2020-03-12 12:00:00 18.1 16 Sur 31 Sur 0 -- -- 54
2020-03-12 11:00:00 17.3 16 Sur 26 Sur 0 -- -- 52
2020-03-12 10:00:00 16.1 13 Sur 23 Sur 0 -- -- 56
2020-03-12 09:00:00 14.9 10 Sur 16 Sur 0 -- -- 60
2020-03-12 08:00:00 12.8 6 Sur 12 Sur 0 -- -- 65
2020-03-12 07:00:00 11.4 6 Sudeste 9 Sudeste 0 -- -- 72
2020-03-12 06:00:00 10.7 2 Sudeste 4 Sudeste 0 -- -- 76
2020-03-12 05:00:00 11.6 0 Calma 4 Sudoeste 0 -- -- 72
2020-03-12 04:00:00 12.4 0 Calma 8 Sudoeste 0 -- -- 68
2020-03-12 03:00:00 15 5 Sudoeste 14 Sur 0 -- -- 57
2020-03-12 02:00:00 16.1 8 Sur 13 Sur 0 -- -- 53
2020-03-12 01:00:00 16 8 Sudoeste 13 Sudoeste 0 -- -- 55
2020-03-12 00:00:00 14 4 Sur 7 Sur 0 -- -- 65
2020-03-11 23:00:00 15.5 5 Sur 11 Sur 0 -- -- 59
2020-03-11 22:00:00 13.1 0 Calma 6 Sur 0 -- -- 72
2020-03-11 21:00:00 14.7 3 Noroeste 8 Sudoeste 0 -- -- 70
2020-03-11 20:00:00 18.9 0 Calma 9 Sur 0 -- -- 54
2020-03-11 19:00:00 22.3 2 Sur 10 Sudeste 0 -- -- 49
2020-03-11 18:00:00 25.5 5 Sudeste 10 Sur 0 -- -- 40
2020-03-11 17:00:00 25.4 6 Sur 13 Sur 0 -- -- 36
2020-03-11 16:00:00 25.5 6 Sudeste 15 Sur 0 -- -- 37
2020-03-11 15:00:00 25.8 8 Sur 16 Sur 0 -- -- 37
2020-03-11 14:00:00 25.9 8 Sur 17 Sudeste 0 -- -- 37
2020-03-11 13:00:00 25.3 13 Sur 24 Sudeste 0 -- -- 34
2020-03-11 12:00:00 24.3 13 Sudeste 20 Sudeste 0 -- -- 38
2020-03-11 11:00:00 21.9 9 Sudeste 15 Sur 0 -- -- 49
2020-03-11 10:00:00 18.1 3 Sur 6 Sudeste 0 -- -- 58
2020-03-11 09:00:00 12.5 3 Sur 4 Sur 0 -- -- 75
2020-03-11 08:00:00 7.5 2 Norte 4 Nordeste 0 -- -- 90
2020-03-11 07:00:00 8.8 0 Calma 7 Norte 0 -- -- 85
2020-03-11 06:00:00 7.9 4 Norte 5 Norte 0 -- -- 91
2020-03-11 05:00:00 7.6 2 Noroeste 5 Noroeste 0 -- -- 89
2020-03-11 04:00:00 7.6 3 Oeste 4 Noroeste 0 -- -- 89
2020-03-11 03:00:00 8 3 Noroeste 7 Norte 0 -- -- 87
2020-03-11 02:00:00 8.2 3 Noroeste 4 Noroeste 0 -- -- 86
2020-03-11 01:00:00 9 3 Noroeste 4 Noroeste 0 -- -- 85
2020-03-11 00:00:00 9.8 3 Norte 5 Noroeste 0 -- -- 85
2020-03-10 23:00:00 10.9 2 Norte 5 Norte 0 -- -- 80
2020-03-10 22:00:00 12.6 2 Noroeste 12 Noroeste 0 -- -- 73
2020-03-10 21:00:00 12.8 2 Norte 4 Norte 0 -- -- 75
2020-03-10 20:00:00 16.8 3 Noroeste 5 Nordeste 0 -- -- 60
2020-03-10 19:00:00 22.3 4 Nordeste 9 Nordeste 0 -- -- 42
2020-03-10 18:00:00 24.3 6 Este 13 Este 0 -- -- 36
2020-03-10 17:00:00 24.9 5 Este 17 Sudeste 0 -- -- 37
2020-03-10 16:00:00 25 6 Nordeste 15 Nordeste 0 -- -- 37
2020-03-10 15:00:00 24.7 6 Nordeste 12 Nordeste 0 -- -- 36
2020-03-10 14:00:00 23.9 4 Sudoeste 10 Este 0 -- -- 39
2020-03-10 13:00:00 22.1 5 Sudeste 13 Este 0 -- -- 42
2020-03-10 12:00:00 20.3 6 Este 16 Este 0 -- -- 44
2020-03-10 11:00:00 19 8 Sudeste 19 Sudeste 0 -- -- 42
2020-03-10 10:00:00 15 8 Sudeste 15 Este 0 -- -- 52
2020-03-10 09:00:00 10.1 3 Sudeste 8 Sur 0 -- -- 66
2020-03-10 08:00:00 4.9 2 Sudoeste 5 Noroeste 0 -- -- 88
2020-03-10 07:00:00 6.8 3 Norte 9 Noroeste 0 -- -- 81
2020-03-10 06:00:00 6.6 5 Noroeste 9 Noroeste 0 -- -- 79
2020-03-10 05:00:00 8.1 7 Norte 13 Noroeste 0 -- -- 75
2020-03-10 04:00:00 4.5 3 Noroeste 6 Noroeste 0 -- -- 92
2020-03-10 03:00:00 5.9 3 Norte 5 Norte 0 -- -- 88
2020-03-10 02:00:00 7.9 2 Sur 13 Norte 0 -- -- 82
2020-03-10 01:00:00 9.1 8 Norte 14 Norte 0 -- -- 78
2020-03-10 00:00:00 8.8 8 Norte 12 Norte 0 -- -- 79
2020-03-09 23:00:00 9 7 Norte 10 Norte 0 -- -- 74
2020-03-09 22:00:00 9.7 5 Noroeste 12 Noroeste 0 -- -- 71
2020-03-09 21:00:00 11.3 5 Noroeste 12 Noroeste 0 -- -- 62
2020-03-09 20:00:00 12.8 5 Noroeste 12 Noroeste 0 -- -- 57
2020-03-09 19:00:00 15.6 9 Norte 23 Norte 0 -- -- 47
2020-03-09 18:00:00 17.6 12 Norte 28 Norte 0 -- -- 37
2020-03-09 17:00:00 18.4 17 Norte 27 Norte 0 -- -- 33
2020-03-09 16:00:00 18.4 15 Norte 25 Norte 0 -- -- 32
2020-03-09 15:00:00 18.7 11 Norte 26 Norte 0 -- -- 34
2020-03-09 14:00:00 18 12 Noroeste 24 Norte 0 -- -- 37
2020-03-09 13:00:00 16.7 14 Norte 29 Norte 0 -- -- 41
2020-03-09 12:00:00 15.1 18 Norte 28 Norte 0 -- -- 46
2020-03-09 11:00:00 14.1 16 Norte 25 Norte 0 -- -- 50
2020-03-09 10:00:00 10.2 10 Norte 17 Norte 0 -- -- 87
2020-03-09 09:00:00 7.2 8 Norte 12 Norte 0 -- -- 100
2020-03-09 08:00:00 5.5 4 Norte 10 Norte 0 -- -- 99
2020-03-09 07:00:00 3 5 Norte 8 Norte 0 -- -- 99
2020-03-09 06:00:00 4.1 2 Noroeste 3 Noroeste 0 -- -- 97
2020-03-09 05:00:00 4.4 0 Calma 6 Noroeste 0 -- -- 97
2020-03-09 04:00:00 5.3 0 Calma 4 Sur 0 -- -- 96
2020-03-09 03:00:00 7.4 6 Norte 14 Norte 0 -- -- 97
2020-03-09 02:00:00 8.1 6 Noroeste 18 Noroeste 0 -- -- 96
2020-03-09 01:00:00 6.4 0 Calma 5 Noroeste 0 -- -- 96
2020-03-09 00:00:00 6.4 3 Norte 5 Norte 0 -- -- 93
2020-03-08 23:00:00 7.4 0 Calma 5 Noroeste 0 -- -- 86
2020-03-08 22:00:00 8.8 0 Calma 8 Norte 0 -- -- 79
2020-03-08 21:00:00 10.2 4 Noroeste 18 Noroeste 0 -- -- 72
2020-03-08 20:00:00 11.9 8 Noroeste 20 Noroeste 0 -- -- 68
2020-03-08 19:00:00 13.7 10 Noroeste 18 Noroeste 0 -- -- 57
2020-03-08 18:00:00 15.2 10 Noroeste 21 Noroeste 0 -- -- 54
2020-03-08 17:00:00 16.4 10 Noroeste 22 Norte 0 -- -- 47
2020-03-08 16:00:00 16.6 10 Norte 21 Norte 0 -- -- 47
2020-03-08 15:00:00 17.8 8 Oeste 17 Oeste 0 -- -- 39
2020-03-08 14:00:00 17.4 6 Oeste 17 Oeste 0 -- -- 36
2020-03-08 13:00:00 16.8 7 Noroeste 15 Norte 0 -- -- 37
2020-03-08 12:00:00 15.6 6 Noroeste 13 Noroeste 0 -- -- 38
2020-03-08 11:00:00 14 4 Noroeste 6 Norte 0 -- -- 54
2020-03-08 10:00:00 10.2 3 Nordeste 8 Este 0 -- -- 67
2020-03-08 09:00:00 3.7 0 Calma 4 Noroeste 0 -- -- 98
2020-03-08 08:00:00 -0.1 0 Calma 7 Noroeste 0 -- -- 96
2020-03-08 07:00:00 0.2 3 Noroeste 6 Noroeste 0 -- -- 96
2020-03-08 06:00:00 0.3 3 Noroeste 6 Noroeste 0 -- -- 95
2020-03-08 05:00:00 0.8 4 Noroeste 5 Noroeste 0 -- -- 94
2020-03-08 04:00:00 1.2 3 Noroeste 4 Noroeste 0 -- -- 95
2020-03-08 03:00:00 1.2 3 Noroeste 5 Noroeste 0 -- -- 94
2020-03-08 02:00:00 1.5 3 Noroeste 6 Noroeste 0 -- -- 94
2020-03-08 01:00:00 2 0 Calma 2 Sudoeste 0 -- -- 92
2020-03-08 00:00:00 2.6 2 Noroeste 5 Noroeste 0 -- -- 91